AUA99J ESGG-LOWW
Flight info
| Callsign | AUA99J |
|---|---|
| Flight time | 1h 33m |
| Altitude | 38000 |
| Route | TOPLA DCT INRER DCT SALLO DCT USEDU DCT LUROS M725 HDO DCT EVIKU DCT BITSI DCT MIKOV MIKOV8W |
| Aircraft | A320/M-SDE3FGHIRWY/LB1 |
Departure
| Time | 2026-05-07 18:26 |
|---|---|
| Airport | Göteborg Landvetter Airport (ESGG) |
Arrival
| Time | 2026-05-07 19:59 |
|---|---|
| Airport | Vienna International Airport (LOWW) |
| Time | Latitude | Longitude | Altitude | Speed | Heading |
|---|---|---|---|---|---|
| 2026-05-07 17:52 | 57.66928 | 12.29470 | 521 ft | 0 kts | 116° |
| 2026-05-07 18:19 | 57.66932 | 12.29455 | 521 ft | 2 kts | 116° |
| 2026-05-07 18:19 | 57.66940 | 12.29425 | 521 ft | 3 kts | 116° |
| 2026-05-07 18:19 | 57.66948 | 12.29391 | 521 ft | 3 kts | 116° |
| 2026-05-07 18:20 | 57.66954 | 12.29369 | 521 ft | 0 kts | 107° |
| 2026-05-07 18:20 | 57.66892 | 12.29306 | 521 ft | 0 kts | 28° |
| 2026-05-07 18:20 | 57.66892 | 12.29307 | 521 ft | 0 kts | 28° |
| 2026-05-07 18:21 | 57.66893 | 12.29307 | 521 ft | 0 kts | 28° |
| 2026-05-07 18:22 | 57.66912 | 12.29319 | 521 ft | 8 kts | 18° |
| 2026-05-07 18:22 | 57.67014 | 12.29384 | 521 ft | 15 kts | 19° |
| 2026-05-07 18:22 | 57.67108 | 12.29448 | 521 ft | 12 kts | 20° |
| 2026-05-07 18:23 | 57.67183 | 12.29502 | 521 ft | 11 kts | 358° |
| 2026-05-07 18:23 | 57.67237 | 12.29427 | 521 ft | 10 kts | 311° |
| 2026-05-07 18:23 | 57.67303 | 12.29389 | 521 ft | 12 kts | 13° |
| 2026-05-07 18:23 | 57.67371 | 12.29464 | 521 ft | 11 kts | 34° |
| 2026-05-07 18:24 | 57.67419 | 12.29474 | 521 ft | 2 kts | 304° |
| 2026-05-07 18:24 | 57.67420 | 12.29473 | 521 ft | 0 kts | 304° |
| 2026-05-07 18:24 | 57.67456 | 12.29371 | 521 ft | 20 kts | 301° |
| 2026-05-07 18:25 | 57.67449 | 12.29136 | 521 ft | 19 kts | 244° |
| 2026-05-07 18:25 | 57.67364 | 12.28964 | 521 ft | 25 kts | 206° |
| 2026-05-07 18:25 | 57.66990 | 12.28620 | 521 ft | 96 kts | 207° |
| 2026-05-07 18:25 | 57.66183 | 12.27874 | 558 ft | 148 kts | 206° |
| 2026-05-07 18:26 | 57.65314 | 12.27105 | 1056 ft | 146 kts | 207° |
| 2026-05-07 18:26 | 57.64366 | 12.26253 | 1677 ft | 147 kts | 208° |
| 2026-05-07 18:26 | 57.63421 | 12.25392 | 2221 ft | 155 kts | 209° |
| 2026-05-07 18:26 | 57.62374 | 12.24442 | 2605 ft | 180 kts | 207° |
| 2026-05-07 18:27 | 57.61116 | 12.23677 | 2932 ft | 213 kts | 192° |
| 2026-05-07 18:27 | 57.59499 | 12.23315 | 3453 ft | 239 kts | 187° |
| 2026-05-07 18:27 | 57.57797 | 12.23000 | 4252 ft | 252 kts | 186° |
| 2026-05-07 18:27 | 57.56025 | 12.22681 | 5212 ft | 260 kts | 185° |
| 2026-05-07 18:28 | 57.54204 | 12.22541 | 6274 ft | 265 kts | 180° |
| 2026-05-07 18:28 | 57.52389 | 12.22793 | 7361 ft | 268 kts | 173° |
| 2026-05-07 18:28 | 57.50490 | 12.23299 | 8454 ft | 271 kts | 172° |
| 2026-05-07 18:28 | 57.48606 | 12.23831 | 9468 ft | 275 kts | 171° |
| 2026-05-07 18:29 | 57.46709 | 12.24381 | 10390 ft | 281 kts | 171° |
| 2026-05-07 18:29 | 57.44717 | 12.24967 | 11008 ft | 299 kts | 171° |
| 2026-05-07 18:29 | 57.42616 | 12.25599 | 11635 ft | 313 kts | 172° |
| 2026-05-07 18:29 | 57.40444 | 12.26238 | 12419 ft | 321 kts | 173° |
| 2026-05-07 18:30 | 57.38216 | 12.26853 | 13205 ft | 328 kts | 173° |
| 2026-05-07 18:30 | 57.35901 | 12.27527 | 14000 ft | 335 kts | 174° |
| 2026-05-07 18:30 | 57.33583 | 12.28197 | 14804 ft | 340 kts | 174° |
| 2026-05-07 18:30 | 57.31253 | 12.28936 | 15596 ft | 344 kts | 173° |
| 2026-05-07 18:31 | 57.28909 | 12.29870 | 16392 ft | 348 kts | 169° |
| 2026-05-07 18:31 | 57.26632 | 12.31027 | 17114 ft | 352 kts | 168° |
| 2026-05-07 18:31 | 57.24188 | 12.32284 | 17920 ft | 353 kts | 169° |
| 2026-05-07 18:31 | 57.21877 | 12.33417 | 18540 ft | 358 kts | 169° |
| 2026-05-07 18:32 | 57.19453 | 12.34572 | 19153 ft | 363 kts | 170° |
| 2026-05-07 18:32 | 57.16970 | 12.35782 | 19814 ft | 367 kts | 170° |
| 2026-05-07 18:32 | 57.14486 | 12.37000 | 20461 ft | 370 kts | 170° |
| 2026-05-07 18:32 | 57.12001 | 12.38217 | 21089 ft | 374 kts | 170° |
| 2026-05-07 18:33 | 57.09527 | 12.39419 | 21701 ft | 376 kts | 171° |
| 2026-05-07 18:33 | 57.06950 | 12.40606 | 22306 ft | 379 kts | 171° |
| 2026-05-07 18:33 | 57.04428 | 12.41831 | 22896 ft | 382 kts | 171° |
| 2026-05-07 18:33 | 57.01788 | 12.43109 | 23465 ft | 384 kts | 171° |
| 2026-05-07 18:34 | 56.99090 | 12.44460 | 24039 ft | 387 kts | 171° |
| 2026-05-07 18:34 | 56.96585 | 12.45682 | 24525 ft | 389 kts | 171° |
| 2026-05-07 18:34 | 56.93996 | 12.46912 | 25053 ft | 391 kts | 171° |
| 2026-05-07 18:34 | 56.91377 | 12.48191 | 25590 ft | 392 kts | 171° |
| 2026-05-07 18:35 | 56.88707 | 12.49434 | 26089 ft | 393 kts | 172° |
| 2026-05-07 18:35 | 56.86046 | 12.50686 | 26597 ft | 394 kts | 171° |
| 2026-05-07 18:35 | 56.83411 | 12.51940 | 27077 ft | 395 kts | 171° |
| 2026-05-07 18:35 | 56.80670 | 12.53359 | 27593 ft | 397 kts | 167° |
| 2026-05-07 18:36 | 56.78090 | 12.54746 | 27997 ft | 397 kts | 170° |
| 2026-05-07 18:36 | 56.75440 | 12.56167 | 28436 ft | 396 kts | 171° |
| 2026-05-07 18:36 | 56.72772 | 12.57259 | 28847 ft | 396 kts | 173° |
| 2026-05-07 18:36 | 56.70081 | 12.58353 | 29233 ft | 398 kts | 172° |
| 2026-05-07 18:37 | 56.67387 | 12.59608 | 29632 ft | 399 kts | 170° |
| 2026-05-07 18:37 | 56.64713 | 12.60850 | 29979 ft | 401 kts | 171° |
| 2026-05-07 18:37 | 56.61973 | 12.62068 | 30336 ft | 401 kts | 171° |
| 2026-05-07 18:37 | 56.59252 | 12.63271 | 30681 ft | 401 kts | 172° |
| 2026-05-07 18:38 | 56.56535 | 12.64550 | 31040 ft | 406 kts | 164° |
| 2026-05-07 18:38 | 56.53898 | 12.66218 | 31406 ft | 404 kts | 169° |
| 2026-05-07 18:38 | 56.51370 | 12.67351 | 31562 ft | 407 kts | 171° |
| 2026-05-07 18:38 | 56.48592 | 12.68511 | 31822 ft | 410 kts | 171° |
| 2026-05-07 18:39 | 56.45824 | 12.69767 | 32100 ft | 413 kts | 170° |
| 2026-05-07 18:39 | 56.43038 | 12.71029 | 32386 ft | 415 kts | 170° |
| 2026-05-07 18:39 | 56.40264 | 12.72293 | 32705 ft | 416 kts | 170° |
| 2026-05-07 18:39 | 56.37398 | 12.73605 | 33037 ft | 417 kts | 170° |
| 2026-05-07 18:40 | 56.34591 | 12.74907 | 33376 ft | 417 kts | 170° |
| 2026-05-07 18:40 | 56.31781 | 12.76212 | 33718 ft | 417 kts | 170° |
| 2026-05-07 18:40 | 56.29022 | 12.77490 | 34054 ft | 417 kts | 170° |
| 2026-05-07 18:40 | 56.26130 | 12.78828 | 34402 ft | 417 kts | 170° |
| 2026-05-07 18:41 | 56.23367 | 12.80093 | 34708 ft | 416 kts | 171° |
| 2026-05-07 18:41 | 56.20538 | 12.81323 | 35009 ft | 415 kts | 172° |
| 2026-05-07 18:41 | 56.17738 | 12.82470 | 35286 ft | 415 kts | 171° |
| 2026-05-07 18:41 | 56.14898 | 12.83700 | 35527 ft | 415 kts | 173° |
| 2026-05-07 18:42 | 56.12103 | 12.84834 | 35784 ft | 418 kts | 168° |
| 2026-05-07 18:42 | 56.09299 | 12.86196 | 36033 ft | 417 kts | 172° |
| 2026-05-07 18:42 | 56.06455 | 12.87438 | 36286 ft | 419 kts | 169° |
| 2026-05-07 18:42 | 56.03703 | 12.88848 | 36531 ft | 420 kts | 168° |
| 2026-05-07 18:43 | 56.00805 | 12.90155 | 36793 ft | 418 kts | 170° |
| 2026-05-07 18:43 | 55.98016 | 12.91488 | 37037 ft | 420 kts | 169° |
| 2026-05-07 18:43 | 55.95181 | 12.92818 | 37177 ft | 422 kts | 169° |
| 2026-05-07 18:43 | 55.92323 | 12.94187 | 37299 ft | 425 kts | 169° |
| 2026-05-07 18:44 | 55.89481 | 12.95521 | 37424 ft | 428 kts | 169° |
| 2026-05-07 18:44 | 55.86559 | 12.96879 | 37551 ft | 431 kts | 169° |
| 2026-05-07 18:44 | 55.83635 | 12.98219 | 37677 ft | 435 kts | 169° |
| 2026-05-07 18:44 | 55.80654 | 12.99546 | 37803 ft | 437 kts | 171° |
| 2026-05-07 18:45 | 55.77712 | 13.00821 | 37902 ft | 441 kts | 169° |
| 2026-05-07 18:45 | 55.71741 | 13.03478 | 37942 ft | 444 kts | 171° |
| 2026-05-07 18:46 | 55.65813 | 13.06500 | 37917 ft | 443 kts | 172° |
| 2026-05-07 18:46 | 55.59846 | 13.09077 | 37941 ft | 445 kts | 169° |
| 2026-05-07 18:47 | 55.53809 | 13.11638 | 37940 ft | 443 kts | 170° |
| 2026-05-07 18:47 | 55.47951 | 13.14616 | 37934 ft | 444 kts | 169° |
| 2026-05-07 18:48 | 55.41854 | 13.16635 | 37935 ft | 439 kts | 178° |
| 2026-05-07 18:48 | 55.35751 | 13.17314 | 37938 ft | 437 kts | 181° |
| 2026-05-07 18:49 | 55.29771 | 13.16562 | 37942 ft | 436 kts | 186° |
| 2026-05-07 18:49 | 55.23646 | 13.16348 | 37940 ft | 437 kts | 183° |
| 2026-05-07 18:50 | 55.17586 | 13.16465 | 37932 ft | 436 kts | 184° |
| 2026-05-07 18:50 | 55.11509 | 13.16392 | 37939 ft | 437 kts | 182° |
| 2026-05-07 18:51 | 55.05423 | 13.16715 | 37933 ft | 437 kts | 182° |
| 2026-05-07 18:51 | 55.00450 | 13.16723 | 37932 ft | 437 kts | 184° |
| 2026-05-07 18:52 | 54.93371 | 13.17169 | 37930 ft | 438 kts | 182° |
| 2026-05-07 18:52 | 54.88305 | 13.17246 | 37911 ft | 436 kts | 185° |
| 2026-05-07 18:53 | 54.82272 | 13.18202 | 37928 ft | 444 kts | 168° |
| 2026-05-07 18:53 | 54.76243 | 13.20361 | 37913 ft | 437 kts | 181° |
| 2026-05-07 18:54 | 54.70240 | 13.22272 | 37898 ft | 444 kts | 170° |
| 2026-05-07 18:54 | 54.64218 | 13.24758 | 37901 ft | 444 kts | 171° |
| 2026-05-07 18:55 | 54.58137 | 13.26543 | 37898 ft | 442 kts | 173° |
| 2026-05-07 18:55 | 54.52107 | 13.28699 | 37894 ft | 443 kts | 172° |
| 2026-05-07 18:56 | 54.46053 | 13.30819 | 37885 ft | 443 kts | 172° |
| 2026-05-07 18:56 | 54.40005 | 13.32725 | 37885 ft | 443 kts | 173° |
| 2026-05-07 18:57 | 54.33935 | 13.34663 | 37881 ft | 443 kts | 173° |
| 2026-05-07 18:57 | 54.27913 | 13.36673 | 37878 ft | 443 kts | 172° |
| 2026-05-07 18:58 | 54.21853 | 13.38662 | 37873 ft | 442 kts | 174° |
| 2026-05-07 18:58 | 54.15823 | 13.40449 | 37871 ft | 442 kts | 173° |
| 2026-05-07 18:59 | 54.09681 | 13.41648 | 37862 ft | 442 kts | 174° |
| 2026-05-07 18:59 | 54.03760 | 13.44538 | 37861 ft | 446 kts | 167° |
| 2026-05-07 19:00 | 53.97795 | 13.46674 | 37861 ft | 441 kts | 176° |
| 2026-05-07 19:00 | 53.91709 | 13.48640 | 37858 ft | 442 kts | 174° |
| 2026-05-07 19:01 | 53.85630 | 13.49970 | 37854 ft | 442 kts | 174° |
| 2026-05-07 19:01 | 53.79586 | 13.52050 | 37843 ft | 444 kts | 172° |
| 2026-05-07 19:02 | 53.73536 | 13.53833 | 37844 ft | 443 kts | 173° |
| 2026-05-07 19:02 | 53.67484 | 13.55832 | 37841 ft | 443 kts | 172° |
| 2026-05-07 19:03 | 53.61447 | 13.57891 | 37840 ft | 443 kts | 172° |
| 2026-05-07 19:03 | 53.55359 | 13.59717 | 37842 ft | 443 kts | 173° |
| 2026-05-07 19:04 | 53.49321 | 13.61584 | 37836 ft | 441 kts | 174° |
| 2026-05-07 19:04 | 53.43304 | 13.63402 | 37836 ft | 442 kts | 173° |
| 2026-05-07 19:05 | 53.37240 | 13.65340 | 37836 ft | 442 kts | 173° |
| 2026-05-07 19:05 | 53.31242 | 13.67268 | 37838 ft | 443 kts | 173° |
| 2026-05-07 19:06 | 53.25208 | 13.69099 | 37835 ft | 442 kts | 174° |
| 2026-05-07 19:06 | 53.19470 | 13.68918 | 38947 ft | 418 kts | 179° |
| 2026-05-07 19:06 | 53.16556 | 13.70030 | 38167 ft | 442 kts | 165° |
| 2026-05-07 19:07 | 53.13482 | 13.71957 | 37472 ft | 443 kts | 164° |
| 2026-05-07 19:07 | 53.10928 | 13.73572 | 37085 ft | 438 kts | 166° |
| 2026-05-07 19:07 | 53.07977 | 13.74666 | 36902 ft | 430 kts | 175° |
| 2026-05-07 19:07 | 53.05046 | 13.74970 | 36848 ft | 435 kts | 177° |
| 2026-05-07 19:08 | 52.99036 | 13.77313 | 36828 ft | 441 kts | 172° |
| 2026-05-07 19:08 | 52.93049 | 13.79156 | 36819 ft | 440 kts | 174° |
| 2026-05-07 19:09 | 52.86952 | 13.79810 | 36814 ft | 436 kts | 180° |
| 2026-05-07 19:09 | 52.83922 | 13.80803 | 36820 ft | 444 kts | 167° |
| 2026-05-07 19:09 | 52.80996 | 13.82111 | 36788 ft | 439 kts | 175° |
| 2026-05-07 19:10 | 52.74995 | 13.84113 | 36816 ft | 440 kts | 172° |
| 2026-05-07 19:10 | 52.72442 | 13.84363 | 36764 ft | 427 kts | 194° |
| 2026-05-07 19:10 | 52.69381 | 13.84090 | 36837 ft | 440 kts | 169° |
| 2026-05-07 19:11 | 52.63604 | 13.87655 | 36808 ft | 440 kts | 170° |
| 2026-05-07 19:11 | 52.57599 | 13.89558 | 36824 ft | 438 kts | 174° |
| 2026-05-07 19:12 | 52.51596 | 13.91229 | 36818 ft | 437 kts | 175° |
| 2026-05-07 19:12 | 52.45701 | 13.93710 | 36814 ft | 443 kts | 166° |
| 2026-05-07 19:13 | 52.39712 | 13.95357 | 36818 ft | 433 kts | 181° |
| 2026-05-07 19:13 | 52.33662 | 13.96738 | 36809 ft | 437 kts | 175° |
| 2026-05-07 19:14 | 52.27709 | 13.98408 | 36797 ft | 436 kts | 176° |
| 2026-05-07 19:14 | 52.21656 | 13.99546 | 36802 ft | 438 kts | 174° |
| 2026-05-07 19:15 | 52.15770 | 14.02039 | 36799 ft | 440 kts | 172° |
| 2026-05-07 19:15 | 52.09773 | 14.04267 | 36799 ft | 438 kts | 174° |
| 2026-05-07 19:16 | 52.03806 | 14.05628 | 36787 ft | 438 kts | 172° |
| 2026-05-07 19:16 | 51.97778 | 14.07175 | 36791 ft | 439 kts | 173° |
| 2026-05-07 19:17 | 51.91792 | 14.08790 | 36782 ft | 434 kts | 178° |
| 2026-05-07 19:17 | 51.85845 | 14.10424 | 36785 ft | 437 kts | 174° |
| 2026-05-07 19:18 | 51.79859 | 14.12607 | 36770 ft | 439 kts | 171° |
| 2026-05-07 19:18 | 51.74226 | 14.14144 | 36775 ft | 435 kts | 177° |
| 2026-05-07 19:19 | 51.68212 | 14.15787 | 36740 ft | 441 kts | 168° |
| 2026-05-07 19:19 | 51.62368 | 14.17733 | 36733 ft | 435 kts | 173° |
| 2026-05-07 19:20 | 51.59631 | 14.19990 | 36818 ft | 451 kts | 149° |
| 2026-05-07 19:20 | 51.56999 | 14.22708 | 36743 ft | 447 kts | 160° |
| 2026-05-07 19:20 | 51.54072 | 14.23481 | 36708 ft | 420 kts | 193° |
| 2026-05-07 19:20 | 51.51217 | 14.22433 | 36772 ft | 422 kts | 196° |
| 2026-05-07 19:21 | 51.45342 | 14.22690 | 36810 ft | 435 kts | 171° |
| 2026-05-07 19:21 | 51.39346 | 14.24024 | 36745 ft | 434 kts | 176° |
| 2026-05-07 19:22 | 51.33383 | 14.25458 | 36736 ft | 435 kts | 174° |
| 2026-05-07 19:22 | 51.27424 | 14.26817 | 36730 ft | 436 kts | 173° |
| 2026-05-07 19:23 | 51.21453 | 14.28404 | 36753 ft | 433 kts | 176° |
| 2026-05-07 19:23 | 51.15568 | 14.30608 | 36735 ft | 436 kts | 173° |
| 2026-05-07 19:24 | 51.09634 | 14.32407 | 36758 ft | 427 kts | 183° |
| 2026-05-07 19:24 | 51.03668 | 14.33673 | 36735 ft | 433 kts | 174° |
| 2026-05-07 19:25 | 50.98850 | 14.36081 | 36745 ft | 441 kts | 165° |
| 2026-05-07 19:25 | 50.94968 | 14.36680 | 36688 ft | 416 kts | 199° |
| 2026-05-07 19:25 | 50.92181 | 14.35558 | 36744 ft | 425 kts | 187° |
| 2026-05-07 19:26 | 50.89220 | 14.35937 | 36754 ft | 435 kts | 172° |
| 2026-05-07 19:26 | 50.86381 | 14.37416 | 36709 ft | 445 kts | 159° |
| 2026-05-07 19:26 | 50.81262 | 14.43297 | 36744 ft | 457 kts | 145° |
| 2026-05-07 19:27 | 50.76406 | 14.49693 | 36756 ft | 455 kts | 148° |
| 2026-05-07 19:27 | 50.72259 | 14.54815 | 36754 ft | 457 kts | 144° |
| 2026-05-07 19:28 | 50.66428 | 14.61978 | 36760 ft | 453 kts | 149° |
| 2026-05-07 19:28 | 50.62268 | 14.67104 | 36764 ft | 455 kts | 147° |
| 2026-05-07 19:29 | 50.57320 | 14.73264 | 36766 ft | 454 kts | 148° |
| 2026-05-07 19:29 | 50.52350 | 14.79338 | 36749 ft | 453 kts | 148° |
| 2026-05-07 19:30 | 50.47781 | 14.84967 | 36748 ft | 454 kts | 148° |
| 2026-05-07 19:30 | 50.42424 | 14.89888 | 36760 ft | 439 kts | 166° |
| 2026-05-07 19:31 | 50.36971 | 14.94445 | 36745 ft | 450 kts | 152° |
| 2026-05-07 19:31 | 50.31673 | 14.99591 | 36750 ft | 449 kts | 153° |
| 2026-05-07 19:32 | 50.26505 | 15.05190 | 36746 ft | 453 kts | 148° |
| 2026-05-07 19:32 | 50.21500 | 15.11269 | 36747 ft | 459 kts | 142° |
| 2026-05-07 19:33 | 50.16414 | 15.16833 | 36749 ft | 446 kts | 157° |
| 2026-05-07 19:33 | 50.11190 | 15.22290 | 36749 ft | 452 kts | 150° |
| 2026-05-07 19:34 | 50.06034 | 15.27873 | 36738 ft | 452 kts | 150° |
| 2026-05-07 19:34 | 50.00881 | 15.33510 | 36729 ft | 450 kts | 152° |
| 2026-05-07 19:35 | 49.95852 | 15.39283 | 36735 ft | 455 kts | 146° |
| 2026-05-07 19:35 | 49.90691 | 15.44819 | 36714 ft | 453 kts | 149° |
| 2026-05-07 19:36 | 49.85525 | 15.50411 | 36730 ft | 449 kts | 153° |
| 2026-05-07 19:36 | 49.80343 | 15.55668 | 36730 ft | 450 kts | 152° |
| 2026-05-07 19:37 | 49.75251 | 15.61114 | 36732 ft | 450 kts | 152° |
| 2026-05-07 19:37 | 49.70071 | 15.66687 | 36733 ft | 450 kts | 151° |
| 2026-05-07 19:38 | 49.64915 | 15.72082 | 36734 ft | 448 kts | 154° |
| 2026-05-07 19:38 | 49.59668 | 15.77312 | 36744 ft | 447 kts | 155° |
| 2026-05-07 19:39 | 49.54536 | 15.82761 | 36743 ft | 451 kts | 150° |
| 2026-05-07 19:39 | 49.49541 | 15.88602 | 36740 ft | 451 kts | 151° |
| 2026-05-07 19:40 | 49.44550 | 15.94132 | 36737 ft | 451 kts | 150° |
| 2026-05-07 19:40 | 49.39324 | 15.99218 | 36605 ft | 448 kts | 154° |
| 2026-05-07 19:41 | 49.36763 | 16.02171 | 36166 ft | 453 kts | 148° |
| 2026-05-07 19:41 | 49.34197 | 16.04950 | 35251 ft | 450 kts | 154° |
| 2026-05-07 19:41 | 49.31553 | 16.07553 | 34180 ft | 457 kts | 154° |
| 2026-05-07 19:41 | 49.28846 | 16.10181 | 33097 ft | 461 kts | 154° |
| 2026-05-07 19:42 | 49.26174 | 16.12926 | 32046 ft | 460 kts | 155° |
| 2026-05-07 19:42 | 49.23423 | 16.15409 | 31010 ft | 463 kts | 151° |
| 2026-05-07 19:42 | 49.20832 | 16.18266 | 29973 ft | 459 kts | 154° |
| 2026-05-07 19:42 | 49.18082 | 16.20841 | 28923 ft | 464 kts | 147° |
| 2026-05-07 19:43 | 49.15562 | 16.23821 | 27903 ft | 459 kts | 150° |
| 2026-05-07 19:43 | 49.12922 | 16.26599 | 26857 ft | 456 kts | 151° |
| 2026-05-07 19:43 | 49.10328 | 16.29341 | 25834 ft | 454 kts | 150° |
| 2026-05-07 19:43 | 49.07748 | 16.32059 | 24814 ft | 454 kts | 150° |
| 2026-05-07 19:44 | 49.05080 | 16.34726 | 23770 ft | 455 kts | 153° |
| 2026-05-07 19:44 | 49.02499 | 16.37500 | 22741 ft | 455 kts | 146° |
| 2026-05-07 19:44 | 48.99954 | 16.40244 | 21712 ft | 445 kts | 152° |
| 2026-05-07 19:44 | 48.97261 | 16.42478 | 20677 ft | 436 kts | 154° |
| 2026-05-07 19:45 | 48.94728 | 16.45058 | 19649 ft | 436 kts | 148° |
| 2026-05-07 19:45 | 48.92267 | 16.47622 | 18625 ft | 430 kts | 149° |
| 2026-05-07 19:45 | 48.89836 | 16.50274 | 17627 ft | 424 kts | 149° |
| 2026-05-07 19:45 | 48.87555 | 16.53014 | 16952 ft | 421 kts | 143° |
| 2026-05-07 19:46 | 48.85148 | 16.55391 | 16237 ft | 409 kts | 153° |
| 2026-05-07 19:46 | 48.82676 | 16.57507 | 15525 ft | 405 kts | 152° |
| 2026-05-07 19:46 | 48.80294 | 16.59807 | 14818 ft | 401 kts | 152° |
| 2026-05-07 19:46 | 48.77817 | 16.61519 | 14015 ft | 393 kts | 166° |
| 2026-05-07 19:47 | 48.75173 | 16.62425 | 13168 ft | 388 kts | 171° |
| 2026-05-07 19:47 | 48.72506 | 16.62919 | 12290 ft | 381 kts | 184° |
| 2026-05-07 19:47 | 48.69939 | 16.62146 | 11290 ft | 370 kts | 204° |
| 2026-05-07 19:47 | 48.67853 | 16.60036 | 10657 ft | 365 kts | 221° |
| 2026-05-07 19:48 | 48.66034 | 16.57556 | 10008 ft | 344 kts | 221° |
| 2026-05-07 19:48 | 48.64330 | 16.55275 | 9620 ft | 316 kts | 220° |
| 2026-05-07 19:48 | 48.62688 | 16.53140 | 9086 ft | 295 kts | 220° |
| 2026-05-07 19:48 | 48.61179 | 16.51195 | 8537 ft | 278 kts | 219° |
| 2026-05-07 19:49 | 48.59706 | 16.49399 | 7983 ft | 264 kts | 218° |
| 2026-05-07 19:49 | 48.58290 | 16.47716 | 7426 ft | 252 kts | 217° |
| 2026-05-07 19:49 | 48.56944 | 16.46169 | 6885 ft | 242 kts | 216° |
| 2026-05-07 19:49 | 48.55622 | 16.44692 | 6401 ft | 231 kts | 215° |
| 2026-05-07 19:50 | 48.54324 | 16.43270 | 5967 ft | 225 kts | 214° |
| 2026-05-07 19:50 | 48.53027 | 16.41998 | 5544 ft | 223 kts | 206° |
| 2026-05-07 19:50 | 48.51525 | 16.41503 | 5106 ft | 228 kts | 179° |
| 2026-05-07 19:50 | 48.49880 | 16.41948 | 4821 ft | 243 kts | 169° |
| 2026-05-07 19:51 | 48.48234 | 16.42571 | 4746 ft | 248 kts | 167° |
| 2026-05-07 19:51 | 48.46551 | 16.43270 | 4728 ft | 249 kts | 167° |
| 2026-05-07 19:51 | 48.44872 | 16.43929 | 4723 ft | 249 kts | 167° |
| 2026-05-07 19:51 | 48.43208 | 16.44595 | 4731 ft | 250 kts | 167° |
| 2026-05-07 19:52 | 48.41551 | 16.45273 | 4719 ft | 250 kts | 167° |
| 2026-05-07 19:52 | 48.39851 | 16.45977 | 4733 ft | 249 kts | 167° |
| 2026-05-07 19:52 | 48.38219 | 16.46650 | 4718 ft | 233 kts | 166° |
| 2026-05-07 19:52 | 48.36706 | 16.47295 | 4742 ft | 214 kts | 166° |
| 2026-05-07 19:53 | 48.35306 | 16.47891 | 4728 ft | 207 kts | 167° |
| 2026-05-07 19:53 | 48.33979 | 16.48457 | 4762 ft | 185 kts | 167° |
| 2026-05-07 19:53 | 48.32801 | 16.48960 | 4723 ft | 169 kts | 167° |
| 2026-05-07 19:53 | 48.31664 | 16.49443 | 4526 ft | 168 kts | 167° |
| 2026-05-07 19:54 | 48.30545 | 16.49918 | 4295 ft | 167 kts | 167° |
| 2026-05-07 19:54 | 48.29441 | 16.50387 | 4083 ft | 166 kts | 167° |
| 2026-05-07 19:54 | 48.28322 | 16.50863 | 3870 ft | 167 kts | 167° |
| 2026-05-07 19:54 | 48.27193 | 16.51345 | 3635 ft | 167 kts | 166° |
| 2026-05-07 19:55 | 48.26095 | 16.51814 | 3426 ft | 166 kts | 166° |
| 2026-05-07 19:55 | 48.24978 | 16.52289 | 3206 ft | 166 kts | 166° |
| 2026-05-07 19:55 | 48.23867 | 16.52764 | 2980 ft | 163 kts | 166° |
| 2026-05-07 19:55 | 48.22806 | 16.53216 | 2824 ft | 160 kts | 166° |
| 2026-05-07 19:56 | 48.21730 | 16.53675 | 2602 ft | 159 kts | 166° |
| 2026-05-07 19:56 | 48.20673 | 16.54125 | 2375 ft | 156 kts | 166° |
| 2026-05-07 19:56 | 48.19699 | 16.54540 | 2122 ft | 137 kts | 166° |
| 2026-05-07 19:56 | 48.18835 | 16.54907 | 1915 ft | 124 kts | 166° |
| 2026-05-07 19:57 | 48.18027 | 16.55249 | 1799 ft | 122 kts | 165° |
| 2026-05-07 19:57 | 48.17198 | 16.55602 | 1677 ft | 124 kts | 165° |
| 2026-05-07 19:57 | 48.16383 | 16.55949 | 1499 ft | 123 kts | 165° |
| 2026-05-07 19:57 | 48.15541 | 16.56304 | 1318 ft | 127 kts | 165° |
| 2026-05-07 19:58 | 48.14694 | 16.56662 | 1230 ft | 126 kts | 163° |
| 2026-05-07 19:58 | 48.13856 | 16.57047 | 1052 ft | 127 kts | 165° |
| 2026-05-07 19:58 | 48.12998 | 16.57432 | 921 ft | 130 kts | 165° |
| 2026-05-07 19:58 | 48.12143 | 16.57768 | 735 ft | 127 kts | 166° |
| 2026-05-07 19:59 | 48.11338 | 16.58083 | 615 ft | 99 kts | 161° |
| 2026-05-07 19:59 | 48.10823 | 16.58312 | 615 ft | 63 kts | 166° |
| 2026-05-07 19:59 | 48.10465 | 16.58440 | 615 ft | 36 kts | 167° |
| 2026-05-07 19:59 | 48.10280 | 16.58454 | 615 ft | 22 kts | 192° |
| 2026-05-07 20:00 | 48.10153 | 16.58416 | 615 ft | 22 kts | 198° |
| 2026-05-07 20:00 | 48.10138 | 16.58227 | 615 ft | 21 kts | 287° |
| 2026-05-07 20:00 | 48.10232 | 16.58148 | 615 ft | 16 kts | 344° |
| 2026-05-07 20:00 | 48.10338 | 16.58099 | 615 ft | 16 kts | 341° |
| 2026-05-07 20:01 | 48.10442 | 16.58048 | 615 ft | 16 kts | 342° |
| 2026-05-07 20:01 | 48.10559 | 16.57994 | 615 ft | 21 kts | 343° |
| 2026-05-07 20:01 | 48.10734 | 16.57924 | 615 ft | 27 kts | 345° |
| 2026-05-07 20:01 | 48.10919 | 16.57850 | 615 ft | 27 kts | 345° |
| 2026-05-07 20:02 | 48.11102 | 16.57775 | 615 ft | 27 kts | 345° |
| 2026-05-07 20:02 | 48.11280 | 16.57695 | 615 ft | 27 kts | 344° |
| 2026-05-07 20:02 | 48.11401 | 16.57645 | 615 ft | 27 kts | 344° |
| 2026-05-07 20:02 | 48.11661 | 16.57535 | 615 ft | 30 kts | 344° |
| 2026-05-07 20:03 | 48.11768 | 16.57474 | 615 ft | 22 kts | 324° |
| 2026-05-07 20:03 | 48.11802 | 16.57312 | 615 ft | 16 kts | 291° |
| 2026-05-07 20:03 | 48.11856 | 16.57177 | 615 ft | 15 kts | 321° |
| 2026-05-07 20:03 | 48.11908 | 16.57049 | 615 ft | 14 kts | 301° |
| 2026-05-07 20:04 | 48.11956 | 16.56917 | 615 ft | 14 kts | 294° |
| 2026-05-07 20:04 | 48.11993 | 16.56802 | 615 ft | 10 kts | 296° |
| 2026-05-07 20:04 | 48.11967 | 16.56744 | 615 ft | 8 kts | 201° |
| 2026-05-07 20:04 | 48.11924 | 16.56715 | 615 ft | 6 kts | 207° |
| 2026-05-07 20:05 | 48.11907 | 16.56703 | 615 ft | 0 kts | 207° |